Alto Harmony Hall, Colombia

8:12 PM -05 on September 18, 2019 (GMT -0500)
Los Almendros | | Change Station

Elev 7 ft 12.58 °N, 81.70 °W | Updated 8 seconds ago

Mostly Cloudy
Mostly Cloudy
85.3 °F
Feels Like 84 °F
N
0
Wind Variable Wind from NE
Gusts 0.0 mph

Today
High -- | Low -- °F
--% Chance of Precip.
Yesterday
High -- | Low -- °F
Precip. -- in
Pressure 29.82 in
Visibility 6.2 miles
Clouds Few 1600 ft
Mostly Cloudy 20000 ft
Heat Index 84 °F
Dew Point 55 °F
Humidity 36%
Rainfall in
Snow Depth Not available.
6:16 AM 6:25 PM
Waning Gibbous, 79% visible
METAR SKSP 190100Z 02004G14KT 350V050 9999 FEW016 BKN200 29/25 A2982
Pressure 29.82 in
Visibility 6.2 miles
Clouds Few 1600 ft
Mostly Cloudy 20000 ft
Heat Index 84 °F
Dew Point 55 °F
Humidity 36%
Rainfall in
Snow Depth Not available.
6:16 AM 6:25 PM
Waning Gibbous, 79% visible
METAR SKSP 190100Z 02004G14KT 350V050 9999 FEW016 BKN200 29/25 A2982

Get Severe Weather Alerts

Thanks for signing up!

Be on the lookout for a verification email in your inbox.

You'll start receiving the daily forecast at 6 AM.

×

10-Day Weather Forecast

No radar image for this location.
×

Almanac

Astronomy

Sep. 18, 2019 Rise Set
Actual Time
Civil Twilight
Nautical Twilight
Astronomical Twilight
Moon
Length of Visible Light
Length of Day
Tomorrow will be .
, % of the Moon is Illuminated

Today's Extremes

Country Highs Country Lows

Community

WunderPhotos

Category 6

Welcome to Category 6. This is the collective home for Weather Underground's featured writeups by Dr. Jeff Masters (right), Bob Henson (left), Chris Burt, and other regular contributors.

Nearby

Air Quality

  Air Quality AQ Index Pollutant
Not available.

Snow Depth

Station Depth Elevation

Earthquake Activity

City Distance Mag. Time & Date
Minimum magnitude displayed is 2.5.

Coastal Water Temperatures

Place Temperature

Stations

Nearby Weather Stations

Station Location Temp. Windchill Dew Point Humidity Wind Precip. Elev Updated Type